Time;durP1;ratioP1;P1;durP2;ratioP2;P2;SDS_P1;SDS_P2;PMS_P1;PMS_P2;Temp;Humidity;BMP_temperature;BMP_pressure;BME280_temperature;BME280_humidity;BME280_pressure;Samples;Min_cycle;Max_cycle;Signal;HPM_P1;HPM_P2
2021/04/18 00:01:28;;;;;;;7.65;1.35;;;3.90;99.90;;;;;;5054418;28;20032;-75
2021/04/18 00:03:54;;;;;;;5.90;1.45;;;3.80;99.90;;;;;;5056502;28;20470;-72
2021/04/18 00:06:20;;;;;;;14.75;1.88;;;3.80;99.90;;;;;;5067895;22;20048;-73
2021/04/18 00:08:49;;;;;;;7.32;1.45;;;3.70;99.90;;;;;;5054371;28;20024;-75
2021/04/18 00:11:16;;;;;;;;;;;3.70;99.90;;;;;;5056697;28;20505;-75
2021/04/18 00:13:41;;;;;;;8.00;1.63;;;3.70;99.90;;;;;;5058313;28;19959;-75
2021/04/18 00:16:07;;;;;;;10.18;1.88;;;3.70;99.90;;;;;;5056278;28;20032;-75
2021/04/18 00:18:33;;;;;;;8.38;2.20;;;3.60;99.90;;;;;;5055368;28;20048;-75
2021/04/18 00:20:59;;;;;;;6.00;1.58;;;3.60;99.90;;;;;;5055212;28;20033;-75
2021/04/18 00:23:27;;;;;;;5.15;1.15;;;3.50;99.90;;;;;;5055875;28;20125;-75
2021/04/18 00:25:52;;;;;;;5.30;1.88;;;3.50;99.90;;;;;;5058678;28;20071;-74
2021/04/18 00:28:20;;;;;;;6.22;2.10;;;3.50;99.90;;;;;;5056757;28;20017;-75
2021/04/18 00:30:45;;;;;;;9.80;1.38;;;3.50;99.90;;;;;;5056119;28;20033;-73
2021/04/18 00:33:11;;;;;;;6.57;1.75;;;3.40;99.90;;;;;;5054290;28;20021;-73
2021/04/18 00:35:45;;;;;;;4.55;1.90;;;3.40;99.90;;;;;;5055821;28;20395;-75
2021/04/18 00:38:10;;;;;;;7.18;1.75;;;3.40;99.90;;;;;;5066180;23;20131;-74
2021/04/18 00:40:37;;;;;;;7.53;2.10;;;3.40;99.90;;;;;;5054709;28;20509;-73
2021/04/18 00:43:04;;;;;;;10.07;1.40;;;3.40;99.90;;;;;;5054157;28;20025;-73
2021/04/18 00:45:30;;;;;;;8.20;1.10;;;3.40;99.90;;;;;;5055015;28;20024;-72
2021/04/18 00:47:56;;;;;;;9.73;1.73;;;3.40;99.90;;;;;;5068921;22;20049;-74
2021/04/18 00:50:30;;;;;;;8.95;1.90;;;3.40;99.90;;;;;;5055670;28;20028;-73
2021/04/18 00:52:56;;;;;;;12.80;2.03;;;3.40;99.90;;;;;;5055637;28;20017;-73
2021/04/18 00:55:24;;;;;;;5.28;1.45;;;3.40;99.90;;;;;;5037930;28;20429;-73
2021/04/18 00:57:52;;;;;;;11.73;1.52;;;3.40;99.90;;;;;;5037247;28;20055;-73
2021/04/18 01:00:18;;;;;;;8.48;1.50;;;3.40;99.90;;;;;;5054968;28;20017;-74
2021/04/18 01:02:43;;;;;;;8.02;1.67;;;3.40;99.90;;;;;;5037703;28;20055;-73
2021/04/18 01:05:10;;;;;;;7.55;2.03;;;3.40;99.90;;;;;;5037825;28;20056;-72
2021/04/18 01:07:36;;;;;;;4.97;1.20;;;3.30;99.90;;;;;;5066922;23;20111;-72
2021/04/18 01:10:05;;;;;;;7.38;1.63;;;3.30;99.90;;;;;;5053950;28;20033;-73
2021/04/18 01:12:31;;;;;;;7.75;1.65;;;3.30;99.90;;;;;;5053497;28;20021;-72
2021/04/18 01:14:56;;;;;;;3.90;1.10;;;3.30;99.90;;;;;;5055182;28;20027;-72
2021/04/18 01:17:23;;;;;;;11.07;1.65;;;3.20;99.90;;;;;;5055373;28;20424;-73
2021/04/18 01:19:49;;;;;;;9.55;1.73;;;3.20;99.90;;;;;;5055171;28;20029;-73
2021/04/18 01:22:15;;;;;;;10.20;1.83;;;3.10;99.90;;;;;;5055533;28;20032;-74
2021/04/18 01:24:40;;;;;;;9.38;1.40;;;3.10;99.90;;;;;;5055125;28;20014;-73
2021/04/18 01:27:06;;;;;;;11.40;2.22;;;3.10;99.90;;;;;;5054639;28;20032;-75
2021/04/18 01:29:33;;;;;;;5.95;1.00;;;3.10;99.90;;;;;;5055085;28;20013;-73
2021/04/18 01:31:58;;;;;;;7.15;1.13;;;3.10;99.90;;;;;;5054930;28;20032;-74
2021/04/18 01:34:24;;;;;;;9.63;1.60;;;3.10;99.90;;;;;;5054435;28;20390;-74
2021/04/18 01:36:50;;;;;;;10.43;1.83;;;3.00;99.90;;;;;;5054452;28;20064;-73
2021/04/18 01:39:16;;;;;;;5.47;1.17;;;3.00;99.90;;;;;;5053716;28;20079;-73
2021/04/18 01:41:44;;;;;;;5.95;2.58;;;3.00;99.90;;;;;;5053219;28;20029;-74
2021/04/18 01:44:12;;;;;;;12.60;1.65;;;3.00;99.90;;;;;;5068473;22;20055;-73
2021/04/18 01:46:39;;;;;;;4.72;1.67;;;3.00;99.90;;;;;;5054245;28;20017;-73
2021/04/18 01:49:06;;;;;;;13.18;2.40;;;3.00;99.90;;;;;;5053372;28;20025;-73
2021/04/18 01:51:32;;;;;;;9.90;1.77;;;3.00;99.90;;;;;;5053407;28;20405;-75
2021/04/18 01:53:57;;;;;;;7.82;2.10;;;3.00;99.90;;;;;;5100513;22;20037;-74
2021/04/18 01:56:23;;;;;;;9.90;1.85;;;3.00;99.90;;;;;;5054339;28;20021;-74
2021/04/18 01:58:48;;;;;;;8.93;1.98;;;3.00;99.90;;;;;;5054629;28;20522;-74
2021/04/18 02:01:14;;;;;;;6.85;1.83;;;2.90;99.90;;;;;;5054193;28;20108;-75
2021/04/18 02:03:40;;;;;;;8.23;3.00;;;2.90;99.90;;;;;;5053975;28;20021;-74
2021/04/18 02:06:05;;;;;;;10.07;1.95;;;2.80;99.90;;;;;;5052935;28;20376;-74
2021/04/18 02:08:31;;;;;;;10.05;2.03;;;2.80;99.90;;;;;;5053533;28;20112;-75
2021/04/18 02:10:56;;;;;;;8.65;2.17;;;2.80;99.90;;;;;;5053943;28;20420;-75
2021/04/18 02:13:22;;;;;;;7.53;1.75;;;2.80;99.90;;;;;;5053703;28;20052;-75
2021/04/18 02:15:48;;;;;;;10.32;3.30;;;2.80;99.90;;;;;;5053962;28;20025;-75
2021/04/18 02:18:13;;;;;;;6.15;2.08;;;2.80;99.90;;;;;;5053171;28;20025;-75
2021/04/18 02:20:39;;;;;;;10.45;2.50;;;2.80;99.90;;;;;;5053879;28;20035;-74
2021/04/18 02:23:04;;;;;;;10.45;2.10;;;2.80;99.90;;;;;;5053271;28;20032;-74
2021/04/18 02:25:30;;;;;;;7.68;1.90;;;2.80;99.90;;;;;;5054079;28;20514;-75
2021/04/18 02:27:55;;;;;;;6.57;1.60;;;2.80;99.90;;;;;;5053692;28;20100;-74
2021/04/18 02:30:21;;;;;;;7.10;1.55;;;2.70;99.90;;;;;;5052442;28;20358;-74
2021/04/18 02:32:47;;;;;;;9.63;1.73;;;2.70;99.90;;;;;;5054595;28;20036;-75
2021/04/18 02:35:15;;;;;;;5.72;1.73;;;2.60;99.90;;;;;;5053431;28;20151;-74
2021/04/18 02:37:40;;;;;;;7.90;2.08;;;2.60;99.90;;;;;;5052149;28;20025;-74
2021/04/18 02:40:07;;;;;;;4.72;1.52;;;2.60;99.90;;;;;;5052557;28;20067;-73
2021/04/18 02:42:32;;;;;;;8.38;2.60;;;2.50;99.90;;;;;;5054215;28;20029;-75
2021/04/18 02:44:58;;;;;;;6.95;1.33;;;2.40;99.90;;;;;;5054001;28;20025;-73
2021/04/18 02:47:23;;;;;;;12.60;2.03;;;2.40;99.90;;;;;;5053666;28;20083;-74
2021/04/18 02:49:49;;;;;;;5.63;1.55;;;2.40;99.90;;;;;;5053888;28;20021;-74
2021/04/18 02:52:14;;;;;;;6.57;1.70;;;2.40;99.90;;;;;;5054151;28;20025;-73
2021/04/18 02:54:40;;;;;;;12.57;2.80;;;2.40;99.90;;;;;;5053526;28;20562;-74
2021/04/18 02:57:06;;;;;;;8.80;2.13;;;2.40;99.90;;;;;;5052063;28;20024;-73
2021/04/18 02:59:32;;;;;;;10.65;2.28;;;2.50;99.90;;;;;;5052192;28;20083;-73
2021/04/18 03:01:58;;;;;;;15.75;3.25;;;2.50;99.90;;;;;;5052115;28;20382;-75
2021/04/18 03:04:24;;;;;;;9.25;2.30;;;2.50;99.90;;;;;;5053850;28;20013;-73
2021/04/18 03:06:50;;;;;;;9.35;2.65;;;2.50;99.90;;;;;;5053195;28;20025;-75
2021/04/18 03:09:15;;;;;;;11.25;2.20;;;2.50;99.90;;;;;;5052602;28;20021;-75
2021/04/18 03:11:41;;;;;;;9.05;2.40;;;2.40;99.90;;;;;;5054736;28;20125;-74
2021/04/18 03:14:06;;;;;;;11.95;2.20;;;2.40;99.90;;;;;;5053675;28;20061;-74
2021/04/18 03:16:32;;;;;;;9.68;2.10;;;2.40;99.90;;;;;;5054123;28;20033;-75
2021/04/18 03:18:58;;;;;;;10.45;3.33;;;2.40;99.90;;;;;;5054908;28;20025;-73
2021/04/18 03:21:23;;;;;;;8.73;2.28;;;2.40;99.90;;;;;;5052226;28;20025;-74
2021/04/18 03:23:49;;;;;;;11.10;1.90;;;2.40;99.90;;;;;;5051713;28;20048;-73
2021/04/18 03:26:15;;;;;;;9.30;2.00;;;2.30;99.90;;;;;;5052101;28;20110;-74
2021/04/18 03:28:41;;;;;;;6.55;1.88;;;2.30;99.90;;;;;;5053913;28;20512;-72
2021/04/18 03:31:07;;;;;;;7.30;1.77;;;2.40;99.90;;;;;;5056947;28;20021;-72
2021/04/18 03:33:33;;;;;;;8.85;3.30;;;2.40;99.90;;;;;;5057165;28;20100;-74
2021/04/18 03:39:01;;;;;;;10.07;2.03;;;2.40;99.90;;;;;;5057831;28;20155;-75
2021/04/18 03:41:27;;;;;;;14.30;2.53;;;2.40;99.90;;;;;;5057995;28;20056;-73
2021/04/18 03:43:52;;;;;;;11.02;2.65;;;2.40;99.90;;;;;;5056340;28;20024;-72
2021/04/18 03:46:18;;;;;;;8.20;2.05;;;2.40;99.90;;;;;;5055987;28;20029;-73
2021/04/18 03:48:43;;;;;;;10.93;2.92;;;2.50;99.90;;;;;;5057268;28;20378;-73
2021/04/18 03:51:09;;;;;;;8.55;2.25;;;2.50;99.90;;;;;;5069963;22;20396;-74
2021/04/18 03:53:35;;;;;;;12.82;2.47;;;2.50;99.90;;;;;;5057399;28;20553;-76
2021/04/18 03:56:02;;;;;;;8.93;1.88;;;2.50;99.90;;;;;;5057173;28;20014;-75
2021/04/18 03:58:28;;;;;;;10.23;2.28;;;2.50;99.90;;;;;;5057228;28;20024;-73
2021/04/18 04:00:53;;;;;;;25.63;4.50;;;2.50;99.90;;;;;;5056807;28;20477;-75
2021/04/18 04:03:19;;;;;;;39.88;3.78;;;2.50;99.90;;;;;;5056718;28;20033;-72
2021/04/18 04:05:44;;;;;;;36.25;5.13;;;2.50;99.90;;;;;;5058277;22;20048;-74
2021/04/18 04:08:10;;;;;;;20.20;3.75;;;2.50;99.90;;;;;;5037159;28;20065;-73
2021/04/18 04:10:35;;;;;;;19.08;4.47;;;2.50;99.90;;;;;;5018857;28;20112;-72
2021/04/18 04:13:01;;;;;;;17.08;3.67;;;2.50;99.90;;;;;;5036272;28;20432;-73
2021/04/18 04:15:26;;;;;;;43.47;4.70;;;2.50;99.90;;;;;;5036733;28;20442;-74
2021/04/18 04:17:52;;;;;;;30.80;4.13;;;2.40;99.90;;;;;;5036869;28;20045;-72
2021/04/18 04:20:18;;;;;;;48.33;3.92;;;2.40;99.90;;;;;;5018500;28;20496;-73
2021/04/18 04:22:43;;;;;;;29.15;3.65;;;2.40;99.90;;;;;;5018611;28;20075;-72
2021/04/18 04:25:10;;;;;;;23.77;4.32;;;2.40;99.90;;;;;;5036236;28;20033;-73
2021/04/18 04:27:35;;;;;;;28.92;4.03;;;2.40;99.90;;;;;;5036582;28;20120;-73
2021/04/18 04:30:04;;;;;;;39.50;3.58;;;2.40;99.90;;;;;;5018519;28;20056;-74
2021/04/18 04:32:30;;;;;;;28.77;3.78;;;2.50;99.90;;;;;;5036247;28;20068;-73
2021/04/18 04:34:56;;;;;;;47.33;4.47;;;2.50;99.90;;;;;;5036254;28;20029;-73
2021/04/18 04:37:21;;;;;;;23.13;3.22;;;2.60;99.90;;;;;;5019218;28;20018;-73
2021/04/18 04:39:47;;;;;;;25.13;3.70;;;2.50;99.90;;;;;;5018308;28;20106;-73
2021/04/18 04:42:13;;;;;;;27.13;4.15;;;2.60;99.90;;;;;;5035250;28;20086;-75
2021/04/18 04:44:39;;;;;;;32.45;3.90;;;2.60;99.90;;;;;;5036080;28;20022;-76
2021/04/18 04:47:04;;;;;;;43.45;3.85;;;2.70;99.90;;;;;;5018135;28;20026;-75
2021/04/18 04:49:30;;;;;;;21.80;3.55;;;2.70;99.90;;;;;;5035852;28;20500;-74
2021/04/18 04:51:55;;;;;;;52.35;4.38;;;2.80;99.90;;;;;;5035681;28;20029;-73
2021/04/18 04:54:21;;;;;;;40.47;4.22;;;2.80;99.90;;;;;;5036060;28;20029;-73
2021/04/18 04:56:47;;;;;;;49.63;5.57;;;2.80;99.90;;;;;;5037147;28;20026;-75
2021/04/18 04:59:12;;;;;;;41.30;4.65;;;2.80;99.90;;;;;;5019168;28;20463;-73
2021/04/18 05:01:38;;;;;;;33.65;4.38;;;2.90;99.90;;;;;;5036540;28;20052;-75
2021/04/18 05:04:04;;;;;;;74.72;4.53;;;3.00;99.90;;;;;;5017667;28;20018;-74
2021/04/18 05:06:30;;;;;;;34.55;4.43;;;3.10;99.90;;;;;;5035517;28;20030;-74
2021/04/18 05:08:56;;;;;;;44.78;5.20;;;3.10;99.90;;;;;;5035630;28;20018;-74
2021/04/18 05:11:21;;;;;;;51.38;5.07;;;3.20;99.90;;;;;;5035480;28;20474;-73
2021/04/18 05:13:47;;;;;;;63.45;4.78;;;3.30;99.90;;;;;;5035731;28;20281;-75
2021/04/18 05:16:13;;;;;;;55.47;4.65;;;3.40;99.90;;;;;;5038483;28;20048;-75
2021/04/18 05:18:38;;;;;;;38.38;4.07;;;3.40;99.90;;;;;;5020374;28;20021;-76
2021/04/18 05:21:04;;;;;;;24.92;3.75;;;3.50;99.90;;;;;;5036754;28;20040;-73
2021/04/18 05:23:30;;;;;;;27.65;3.50;;;3.60;99.90;;;;;;5017371;28;20014;-73
2021/04/18 05:25:55;;;;;;;18.98;4.53;;;3.70;99.90;;;;;;5034784;28;20108;-74
2021/04/18 05:28:21;;;;;;;34.10;3.53;;;3.80;99.90;;;;;;5019721;28;20025;-73
2021/04/18 05:30:47;;;;;;;18.77;2.60;;;3.90;99.90;;;;;;5034313;28;20029;-74
2021/04/18 05:33:13;;;;;;;15.27;3.35;;;4.00;99.90;;;;;;5017084;28;20024;-73
2021/04/18 05:35:38;;;;;;;11.40;3.25;;;4.00;99.90;;;;;;5034650;28;20459;-73
2021/04/18 05:38:04;;;;;;;12.68;4.15;;;4.10;99.90;;;;;;5034646;28;20031;-74
2021/04/18 05:40:29;;;;;;;13.07;3.72;;;4.20;99.90;;;;;;5034519;28;20032;-73
2021/04/18 05:42:55;;;;;;;10.07;3.05;;;4.30;99.90;;;;;;5034812;28;20022;-73
2021/04/18 05:45:20;;;;;;;9.45;1.90;;;4.40;99.90;;;;;;5034519;28;20032;-73
2021/04/18 05:47:46;;;;;;;8.55;1.67;;;4.50;99.90;;;;;;5016992;28;20024;-73
2021/04/18 05:50:12;;;;;;;13.32;2.42;;;4.60;99.90;;;;;;5034956;28;20018;-74
2021/04/18 05:52:38;;;;;;;6.93;2.40;;;4.60;99.90;;;;;;5033786;28;20037;-73
2021/04/18 05:55:08;;;;;;;10.50;2.58;;;4.70;99.90;;;;;;5034812;28;20029;-73
2021/04/18 05:57:36;;;;;;;10.45;2.30;;;4.80;99.90;;;;;;5016520;28;20029;-73
2021/04/18 06:00:04;;;;;;;6.25;2.35;;;4.90;99.90;;;;;;5016546;28;20060;-73
2021/04/18 06:02:30;;;;;;;8.02;2.13;;;5.00;99.90;;;;;;5034217;28;20026;-73
2021/04/18 06:04:55;;;;;;;10.75;2.72;;;5.10;99.90;;;;;;5034016;28;20478;-73
2021/04/18 06:07:21;;;;;;;8.95;2.80;;;5.10;99.90;;;;;;5034051;28;20470;-73
2021/04/18 06:09:46;;;;;;;10.50;2.50;;;5.20;99.90;;;;;;5034293;28;20024;-73
2021/04/18 06:12:12;;;;;;;8.38;3.00;;;5.30;99.90;;;;;;5034299;28;20036;-73
2021/04/18 06:14:37;;;;;;;9.43;3.33;;;5.40;99.90;;;;;;5033997;28;20467;-73
2021/04/18 06:17:03;;;;;;;10.00;2.78;;;5.50;99.90;;;;;;5016304;28;20033;-73
2021/04/18 06:19:29;;;;;;;11.45;2.80;;;5.60;99.90;;;;;;5034231;28;20017;-72
2021/04/18 06:21:57;;;;;;;16.70;3.53;;;5.70;99.90;;;;;;5016100;28;20024;-72
2021/04/18 06:24:23;;;;;;;12.32;3.38;;;5.80;99.90;;;;;;5016175;28;20103;-72
2021/04/18 06:26:49;;;;;;;11.77;4.05;;;5.80;99.90;;;;;;5016289;28;20061;-72
2021/04/18 06:29:14;;;;;;;10.32;4.60;;;5.80;99.90;;;;;;5033970;28;20526;-73
2021/04/18 06:31:40;;;;;;;11.65;4.30;;;5.90;99.90;;;;;;5033783;28;20031;-73
2021/04/18 06:34:05;;;;;;;10.43;4.25;;;6.00;99.90;;;;;;5035843;28;20025;-72
2021/04/18 06:36:32;;;;;;;11.77;4.80;;;6.10;99.90;;;;;;5034727;28;20100;-72
2021/04/18 06:38:58;;;;;;;13.85;3.90;;;6.10;99.90;;;;;;5033986;28;20056;-72
2021/04/18 06:41:25;;;;;;;8.32;4.03;;;6.20;99.90;;;;;;5016236;28;20029;-72
2021/04/18 06:43:51;;;;;;;15.50;4.13;;;6.30;99.90;;;;;;5016199;28;20025;-73
2021/04/18 06:46:19;;;;;;;8.52;4.15;;;6.40;99.90;;;;;;5034067;28;20079;-73
2021/04/18 06:48:46;;;;;;;9.93;4.30;;;6.40;99.90;;;;;;5033371;28;20417;-73
2021/04/18 06:51:12;;;;;;;12.45;4.25;;;6.50;99.90;;;;;;5033780;28;20026;-74
2021/04/18 06:53:38;;;;;;;10.15;4.03;;;6.50;99.90;;;;;;5015213;28;20075;-74
2021/04/18 06:56:06;;;;;;;7.43;3.83;;;6.50;99.90;;;;;;5033342;28;20025;-74
2021/04/18 06:58:33;;;;;;;15.02;3.67;;;6.50;99.90;;;;;;5035441;28;20406;-72
2021/04/18 07:01:00;;;;;;;8.27;3.08;;;6.60;99.90;;;;;;5047003;23;20042;-72
2021/04/18 07:03:26;;;;;;;7.93;3.20;;;6.60;99.90;;;;;;5032619;28;20428;-72
2021/04/18 07:05:56;;;;;;;16.25;3.42;;;6.70;99.90;;;;;;5037540;28;20021;-73
2021/04/18 07:08:21;;;;;;;19.92;3.22;;;6.70;99.90;;;;;;5049530;22;20180;-72
2021/04/18 07:10:47;;;;;;;15.25;3.88;;;6.70;99.90;;;;;;5066198;22;20486;-72
2021/04/18 07:13:16;;;;;;;11.15;2.90;;;6.80;99.90;;;;;;5037503;28;20053;-72
2021/04/18 07:15:44;;;;;;;12.43;3.65;;;6.80;99.90;;;;;;5037082;28;20024;-74
2021/04/18 07:18:36;;;;;;;7.57;3.20;;;6.90;99.90;;;;;;5025050;28;20022;-74
2021/04/18 07:21:02;;;;;;;13.00;3.47;;;6.90;99.90;;;;;;5017162;28;20065;-74
2021/04/18 07:23:30;;;;;;;24.67;4.22;;;7.00;99.90;;;;;;5032123;28;20026;-74
2021/04/18 07:25:57;;;;;;;13.60;4.82;;;7.00;99.90;;;;;;5015976;28;20025;-73
2021/04/18 07:28:25;;;;;;;12.43;4.07;;;6.90;99.90;;;;;;5017596;28;20435;-74
2021/04/18 07:30:54;;;;;;;16.08;5.10;;;6.90;99.90;;;;;;5017424;28;20018;-74
2021/04/18 07:33:20;;;;;;;36.70;4.45;;;6.90;99.90;;;;;;5015889;28;20021;-74
2021/04/18 07:35:46;;;;;;;7.40;4.78;;;6.90;99.90;;;;;;5017458;28;20026;-74
2021/04/18 07:38:24;;;;;;;13.95;4.28;;;6.90;99.90;;;;;;5017254;28;20083;-73
2021/04/18 07:40:54;;;;;;;22.60;4.80;;;7.00;99.90;;;;;;5017133;28;20041;-74
2021/04/18 07:43:21;;;;;;;33.15;5.47;;;7.00;99.90;;;;;;5017346;28;20026;-73
2021/04/18 07:45:48;;;;;;;10.43;5.80;;;7.00;99.90;;;;;;5017907;28;20018;-73
2021/04/18 07:48:16;;;;;;;18.85;7.50;;;7.10;99.90;;;;;;5016200;28;20026;-75
2021/04/18 07:50:48;;;;;;;21.00;7.05;;;7.20;99.90;;;;;;5016825;28;20026;-72
2021/04/18 07:53:17;;;;;;;12.98;6.75;;;7.30;99.90;;;;;;5071828;22;20049;-73
2021/04/18 07:55:44;;;;;;;17.17;6.43;;;7.40;99.90;;;;;;5051469;23;20103;-74
2021/04/18 07:58:10;;;;;;;15.73;6.15;;;7.60;99.90;;;;;;5056663;22;20091;-73
2021/04/18 08:00:36;;;;;;;17.27;6.10;;;7.70;99.90;;;;;;5055801;28;20017;-74
2021/04/18 08:03:05;;;;;;;13.48;6.20;;;7.80;99.90;;;;;;5055509;28;20048;-75
2021/04/18 08:05:32;;;;;;;17.40;6.43;;;7.90;99.90;;;;;;5057797;22;20049;-73
2021/04/18 08:08:06;;;;;;;15.27;6.28;;;8.00;99.90;;;;;;5049414;23;20076;-73
2021/04/18 08:10:39;;;;;;;15.07;6.05;;;8.00;99.90;;;;;;5036495;28;20478;-74
2021/04/18 08:13:14;;;;;;;14.95;5.75;;;8.10;99.90;;;;;;5037191;28;20037;-73
2021/04/18 08:15:54;;;;;;;15.95;6.50;;;8.30;99.90;;;;;;5035832;28;20024;-76
2021/04/18 08:18:30;;;;;;;15.13;6.63;;;8.40;99.90;;;;;;5049593;23;20455;-73
2021/04/18 08:20:57;;;;;;;15.18;5.28;;;8.60;99.90;;;;;;5037039;28;20052;-74
2021/04/18 08:23:23;;;;;;;17.20;6.15;;;8.80;99.90;;;;;;5035233;28;20116;-74
2021/04/18 08:26:03;;;;;;;12.05;5.30;;;9.00;99.90;;;;;;5036261;28;20045;-74
2021/04/18 08:28:31;;;;;;;15.95;5.30;;;9.40;99.90;;;;;;5021029;23;20046;-74
2021/04/18 08:31:07;;;;;;;14.88;5.07;;;9.60;99.90;;;;;;4996712;28;20057;-75
2021/04/18 08:33:39;;;;;;;8.95;4.60;;;9.90;99.90;;;;;;4997455;28;20538;-76
2021/04/18 08:36:14;;;;;;;8.77;3.70;;;10.00;99.90;;;;;;5050800;22;20072;-73
2021/04/18 08:38:40;;;;;;;12.68;4.10;;;9.90;99.90;;;;;;5055994;28;20017;-77
2021/04/18 08:41:14;;;;;;;15.73;5.45;;;9.80;99.90;;;;;;5056864;28;20123;-75
2021/04/18 08:43:41;;;;;;;17.00;4.70;;;9.70;99.90;;;;;;5055638;28;20013;-75
2021/04/18 08:46:09;;;;;;;11.85;5.07;;;9.80;99.90;;;;;;5056372;28;20025;-76
2021/04/18 08:48:36;;;;;;;11.05;5.20;;;9.80;99.90;;;;;;5056723;28;20557;-74
2021/04/18 08:51:07;;;;;;;8.60;3.28;;;9.90;99.90;;;;;;5056716;28;20458;-75
2021/04/18 08:54:13;;;;;;;8.23;3.85;;;10.10;99.90;;;;;;5056817;28;20033;-76
2021/04/18 08:56:53;;;;;;;9.50;4.13;;;10.20;99.90;;;;;;4959604;28;20039;-73
2021/04/18 08:59:20;;;;;;;13.98;3.85;;;10.30;99.90;;;;;;4960450;28;20026;-74
2021/04/18 09:01:54;;;;;;;12.70;3.38;;;10.40;99.90;;;;;;5046706;22;20501;-75
2021/04/18 09:04:21;;;;;;;8.13;3.20;;;10.40;99.90;;;;;;5055903;28;20025;-75
2021/04/18 09:06:48;;;;;;;11.15;3.88;;;10.50;99.90;;;;;;5055849;28;20045;-74
2021/04/18 09:09:14;;;;;;;8.43;3.20;;;10.60;99.90;;;;;;5055657;28;20020;-74
2021/04/18 09:11:47;;;;;;;5.65;1.77;;;10.70;99.90;;;;;;5067623;23;20025;-73
2021/04/18 09:14:16;;;;;;;6.55;1.92;;;10.70;99.40;;;;;;5036231;28;20509;-74
2021/04/18 09:16:42;;;;;;;7.15;2.60;;;10.70;98.30;;;;;;5035926;28;20078;-76
2021/04/18 09:19:24;;;;;;;6.00;1.65;;;10.60;99.90;;;;;;5015325;28;20029;-74
2021/04/18 09:21:55;;;;;;;7.80;2.88;;;10.70;99.90;;;;;;4996203;28;20027;-74
2021/04/18 09:24:24;;;;;;;9.60;2.53;;;11.00;99.10;;;;;;4996219;28;20023;-74
2021/04/18 09:27:13;;;;;;;7.10;2.13;;;11.10;96.10;;;;;;4995634;28;20030;-74
2021/04/18 09:29:43;;;;;;;6.28;2.22;;;11.00;94.90;;;;;;4993187;28;20030;-74
2021/04/18 09:32:13;;;;;;;8.10;3.03;;;11.10;96.30;;;;;;4994014;28;20423;-74
2021/04/18 09:34:41;;;;;;;6.20;2.60;;;11.10;98.60;;;;;;5014051;28;20026;-74
2021/04/18 09:37:13;;;;;;;6.63;2.43;;;11.30;97.30;;;;;;5012207;28;20034;-75
2021/04/18 09:39:39;;;;;;;13.80;3.05;;;11.40;98.90;;;;;;5011994;28;20272;-76
2021/04/18 09:42:07;;;;;;;10.20;2.22;;;11.50;96.70;;;;;;5013147;28;20030;-76
2021/04/18 09:44:43;;;;;;;4.55;1.70;;;11.60;91.90;;;;;;5012574;28;20072;-76
2021/04/18 09:47:21;;;;;;;6.35;1.48;;;11.60;90.00;;;;;;5014458;28;20022;-76
2021/04/18 09:49:56;;;;;;;4.30;1.70;;;11.70;84.90;;;;;;5013671;28;20100;-75
2021/04/18 09:52:26;;;;;;;4.82;1.25;;;11.80;88.60;;;;;;5013941;28;20450;-74
2021/04/18 09:54:52;;;;;;;2.97;1.25;;;12.00;84.90;;;;;;5014656;28;20022;-74
2021/04/18 09:57:21;;;;;;;4.25;0.85;;;12.00;83.20;;;;;;5014432;28;20476;-77
2021/04/18 10:00:32;;;;;;;3.10;1.00;;;12.10;75.10;;;;;;5014200;28;20068;-75
2021/04/18 10:03:13;;;;;;;7.25;0.60;;;12.20;71.30;;;;;;4953416;28;20122;-76
2021/04/18 10:05:50;;;;;;;4.80;0.28;;;12.40;73.10;;;;;;5004715;28;20042;-73
2021/04/18 10:08:36;;;;;;;2.47;0.63;;;12.60;68.70;;;;;;5013578;28;20161;-76
2021/04/18 10:11:10;;;;;;;1.30;0.57;;;12.60;67.00;;;;;;5043816;23;20190;-75
2021/04/18 10:13:50;;;;;;;2.00;0.40;;;12.70;68.80;;;;;;5049483;28;20104;-77
2021/04/18 10:16:18;;;;;;;1.63;0.30;;;12.70;65.90;;;;;;5014250;28;20035;-75
2021/04/18 10:19:09;;;;;;;5.30;1.00;;;12.80;65.50;;;;;;5015014;28;20026;-75
2021/04/18 10:21:35;;;;;;;2.08;0.65;;;12.90;63.10;;;;;;5013559;28;20030;-74
2021/04/18 10:24:01;;;;;;;5.22;0.82;;;12.90;66.10;;;;;;5033711;28;20026;-74
2021/04/18 10:26:27;;;;;;;2.22;0.70;;;12.90;64.80;;;;;;5034026;28;20433;-75
2021/04/18 10:28:54;;;;;;;3.08;0.70;;;12.80;66.00;;;;;;5033426;28;20026;-75
2021/04/18 10:31:22;;;;;;;4.72;1.23;;;12.80;66.60;;;;;;5033768;28;20048;-74
2021/04/18 10:33:48;;;;;;;7.75;1.48;;;12.90;66.70;;;;;;5033573;28;20033;-75
2021/04/18 10:36:14;;;;;;;5.47;1.13;;;13.10;66.60;;;;;;5033427;28;20398;-76
2021/04/18 10:38:40;;;;;;;12.98;1.75;;;13.30;67.20;;;;;;5054565;23;20043;-74
2021/04/18 10:41:09;;;;;;;4.22;1.30;;;13.50;66.00;;;;;;5052061;28;20021;-76
2021/04/18 10:43:36;;;;;;;3.30;0.90;;;13.70;67.30;;;;;;5052164;28;20392;-75
2021/04/18 10:46:02;;;;;;;4.03;1.20;;;13.90;66.30;;;;;;5052031;28;20024;-75
2021/04/18 10:48:28;;;;;;;4.72;1.65;;;14.00;63.70;;;;;;5052169;28;20546;-75
2021/04/18 10:50:53;;;;;;;5.07;1.23;;;14.00;63.30;;;;;;5046273;23;20132;-75
2021/04/18 10:53:20;;;;;;;3.95;0.90;;;14.10;63.90;;;;;;5033538;28;20013;-75
2021/04/18 10:55:46;;;;;;;3.92;0.82;;;13.90;64.50;;;;;;5032320;28;20056;-77
2021/04/18 10:58:14;;;;;;;4.70;1.20;;;14.10;66.30;;;;;;5031771;28;20043;-76
2021/04/18 11:00:39;;;;;;;3.07;0.90;;;14.20;66.20;;;;;;5033686;28;20048;-75
2021/04/18 11:03:05;;;;;;;5.75;1.35;;;14.50;65.30;;;;;;5033344;28;20037;-75
2021/04/18 11:05:31;;;;;;;8.57;1.80;;;14.60;62.40;;;;;;5032236;28;20060;-76
2021/04/18 11:07:56;;;;;;;10.02;2.42;;;14.80;65.00;;;;;;5064079;23;20068;-76
2021/04/18 11:10:22;;;;;;;3.72;0.95;;;14.90;62.10;;;;;;5065838;23;20099;-74
2021/04/18 11:12:48;;;;;;;5.43;1.50;;;15.00;59.70;;;;;;5062270;22;20086;-76
2021/04/18 11:15:14;;;;;;;7.82;1.02;;;15.10;59.70;;;;;;5033545;28;20028;-77
2021/04/18 11:17:40;;;;;;;7.25;1.42;;;15.10;60.70;;;;;;5030119;28;20120;-74
2021/04/18 11:20:08;;;;;;;3.47;1.08;;;15.30;59.30;;;;;;5032261;28;20445;-76
2021/04/18 11:22:37;;;;;;;8.63;1.55;;;15.40;60.50;;;;;;5032774;28;20494;-74
2021/04/18 11:25:05;;;;;;;3.15;0.70;;;15.60;59.10;;;;;;5033373;28;20479;-75
2021/04/18 11:27:30;;;;;;;4.50;1.27;;;15.80;60.10;;;;;;5031821;28;20406;-74
2021/04/18 11:29:56;;;;;;;3.08;1.10;;;15.90;60.00;;;;;;5033000;28;20021;-73
2021/04/18 11:32:21;;;;;;;8.95;1.67;;;16.00;59.90;;;;;;5031722;28;20029;-74
2021/04/18 11:34:47;;;;;;;3.92;1.33;;;16.10;59.00;;;;;;5044853;23;20041;-75
2021/04/18 11:37:12;;;;;;;4.95;1.48;;;16.20;57.10;;;;;;5033133;28;20053;-75
2021/04/18 11:39:38;;;;;;;6.00;1.23;;;16.20;56.30;;;;;;5032799;28;20025;-76
2021/04/18 11:42:05;;;;;;;4.07;0.75;;;16.30;58.00;;;;;;5031504;28;20441;-73
2021/04/18 11:44:30;;;;;;;2.28;0.75;;;16.50;57.50;;;;;;5031857;28;20024;-76
2021/04/18 11:46:56;;;;;;;5.95;1.42;;;16.60;55.50;;;;;;5056509;22;20044;-74
2021/04/18 11:49:23;;;;;;;8.07;1.83;;;16.70;54.00;;;;;;5051604;28;20421;-73
2021/04/18 11:51:48;;;;;;;4.88;1.30;;;16.80;56.00;;;;;;5072594;28;20036;-74
2021/04/18 11:54:14;;;;;;;9.48;1.92;;;16.80;58.60;;;;;;5058793;28;20037;-78
2021/04/18 11:56:40;;;;;;;3.88;1.65;;;16.90;57.00;;;;;;5056380;28;20032;-75
2021/04/18 11:59:06;;;;;;;8.13;1.27;;;16.80;56.10;;;;;;5055653;28;20024;-76
2021/04/18 12:01:34;;;;;;;3.97;1.67;;;16.80;58.80;;;;;;5056510;28;20029;-76
2021/04/18 12:03:59;;;;;;;7.35;1.58;;;16.90;58.10;;;;;;5056139;28;20021;-75
2021/04/18 12:06:25;;;;;;;6.07;1.60;;;17.10;56.30;;;;;;5056022;28;20029;-75
2021/04/18 12:08:50;;;;;;;6.72;1.63;;;17.10;56.00;;;;;;5054691;28;20016;-76
2021/04/18 12:11:16;;;;;;;2.42;0.85;;;17.20;57.90;;;;;;5056323;28;20064;-74
2021/04/18 12:13:42;;;;;;;6.55;1.38;;;17.40;55.80;;;;;;5056649;28;20025;-75
2021/04/18 12:16:09;;;;;;;4.95;0.90;;;17.40;54.60;;;;;;5069841;23;20048;-75
2021/04/18 12:18:34;;;;;;;3.88;1.75;;;17.60;55.90;;;;;;5055258;28;20017;-75
2021/04/18 12:21:00;;;;;;;5.18;1.58;;;17.70;54.90;;;;;;5056230;28;20433;-78
2021/04/18 12:23:26;;;;;;;4.45;1.35;;;17.90;57.80;;;;;;5056008;28;20028;-74
2021/04/18 12:25:52;;;;;;;4.38;1.20;;;18.00;53.20;;;;;;5053481;28;20019;-76
2021/04/18 12:28:17;;;;;;;3.47;1.40;;;17.80;51.80;;;;;;5054053;28;20436;-76
2021/04/18 12:30:43;;;;;;;3.45;1.17;;;17.90;52.90;;;;;;5054232;28;20116;-74
2021/04/18 12:33:09;;;;;;;6.95;1.15;;;17.90;54.20;;;;;;5066740;23;20068;-78
2021/04/18 12:35:34;;;;;;;5.43;1.25;;;18.10;53.10;;;;;;5055206;28;20063;-74
2021/04/18 12:38:00;;;;;;;5.88;1.55;;;18.50;52.60;;;;;;5054142;28;20048;-75
2021/04/18 12:40:26;;;;;;;3.20;1.02;;;18.70;51.20;;;;;;5053961;28;20070;-75
2021/04/18 12:42:51;;;;;;;3.38;1.55;;;18.70;49.70;;;;;;5056022;28;20466;-78
2021/04/18 12:45:18;;;;;;;3.42;1.00;;;18.30;49.20;;;;;;5057363;28;20105;-74
2021/04/18 12:47:45;;;;;;;5.18;1.83;;;17.90;50.20;;;;;;5053944;28;20053;-74
2021/04/18 12:50:12;;;;;;;3.38;0.95;;;17.70;53.80;;;;;;5060565;28;20028;-78
2021/04/18 12:52:37;;;;;;;2.90;0.73;;;17.50;49.40;;;;;;5074559;28;20386;-74
2021/04/18 12:55:04;;;;;;;2.83;0.60;;;17.20;51.20;;;;;;5074918;28;20025;-78